sensor_id;sensor_type;location;lat;lon;timestamp;P1;durP1;ratioP1;P2;durP2;ratioP2
64188;SDS011;50493;50.970;10.082;2024-02-28T00:00:09;23.83;;;12.00;;
64188;SDS011;50493;50.970;10.082;2024-02-28T00:02:35;24.77;;;13.55;;
64188;SDS011;50493;50.970;10.082;2024-02-28T00:05:01;21.85;;;11.60;;
64188;SDS011;50493;50.970;10.082;2024-02-28T00:07:26;26.10;;;13.20;;
64188;SDS011;50493;50.970;10.082;2024-02-28T00:09:51;22.67;;;11.98;;
64188;SDS011;50493;50.970;10.082;2024-02-28T00:12:18;23.52;;;12.52;;
64188;SDS011;50493;50.970;10.082;2024-02-28T00:14:43;23.58;;;12.20;;
64188;SDS011;50493;50.970;10.082;2024-02-28T00:17:09;24.25;;;12.45;;
64188;SDS011;50493;50.970;10.082;2024-02-28T00:19:34;20.98;;;11.75;;
64188;SDS011;50493;50.970;10.082;2024-02-28T00:21:59;25.55;;;12.80;;
64188;SDS011;50493;50.970;10.082;2024-02-28T00:24:26;23.95;;;12.05;;
64188;SDS011;50493;50.970;10.082;2024-02-28T00:26:51;21.50;;;11.45;;
64188;SDS011;50493;50.970;10.082;2024-02-28T00:29:18;28.48;;;13.63;;
64188;SDS011;50493;50.970;10.082;2024-02-28T00:31:43;26.45;;;13.07;;
64188;SDS011;50493;50.970;10.082;2024-02-28T00:34:08;24.08;;;10.77;;
64188;SDS011;50493;50.970;10.082;2024-02-28T00:36:34;25.88;;;12.80;;
64188;SDS011;50493;50.970;10.082;2024-02-28T00:38:59;23.45;;;12.10;;
64188;SDS011;50493;50.970;10.082;2024-02-28T00:41:24;21.90;;;11.20;;
64188;SDS011;50493;50.970;10.082;2024-02-28T00:43:50;24.45;;;12.15;;
64188;SDS011;50493;50.970;10.082;2024-02-28T00:46:16;26.02;;;12.95;;
64188;SDS011;50493;50.970;10.082;2024-02-28T00:48:42;24.27;;;11.95;;
64188;SDS011;50493;50.970;10.082;2024-02-28T00:51:07;23.98;;;12.40;;
64188;SDS011;50493;50.970;10.082;2024-02-28T00:53:33;23.58;;;11.73;;
64188;SDS011;50493;50.970;10.082;2024-02-28T00:55:58;24.33;;;12.07;;
64188;SDS011;50493;50.970;10.082;2024-02-28T00:58:24;29.63;;;15.27;;
64188;SDS011;50493;50.970;10.082;2024-02-28T01:00:51;22.73;;;11.05;;
64188;SDS011;50493;50.970;10.082;2024-02-28T01:03:18;25.95;;;13.77;;
64188;SDS011;50493;50.970;10.082;2024-02-28T01:05:43;24.42;;;12.23;;
64188;SDS011;50493;50.970;10.082;2024-02-28T01:08:09;23.38;;;12.05;;
64188;SDS011;50493;50.970;10.082;2024-02-28T01:10:34;24.85;;;12.80;;
64188;SDS011;50493;50.970;10.082;2024-02-28T01:13:00;23.73;;;11.82;;
64188;SDS011;50493;50.970;10.082;2024-02-28T01:15:25;29.23;;;14.15;;
64188;SDS011;50493;50.970;10.082;2024-02-28T01:17:51;23.65;;;11.88;;
64188;SDS011;50493;50.970;10.082;2024-02-28T01:20:17;24.15;;;11.52;;
64188;SDS011;50493;50.970;10.082;2024-02-28T01:22:43;24.13;;;11.82;;
64188;SDS011;50493;50.970;10.082;2024-02-28T01:25:08;28.73;;;13.38;;
64188;SDS011;50493;50.970;10.082;2024-02-28T01:27:34;22.52;;;11.73;;
64188;SDS011;50493;50.970;10.082;2024-02-28T01:30:00;25.90;;;12.80;;
64188;SDS011;50493;50.970;10.082;2024-02-28T01:32:25;29.98;;;13.57;;
64188;SDS011;50493;50.970;10.082;2024-02-28T01:34:50;21.50;;;11.60;;
64188;SDS011;50493;50.970;10.082;2024-02-28T01:37:17;24.65;;;12.38;;
64188;SDS011;50493;50.970;10.082;2024-02-28T01:39:42;25.45;;;12.52;;
64188;SDS011;50493;50.970;10.082;2024-02-28T01:42:08;23.50;;;12.05;;
64188;SDS011;50493;50.970;10.082;2024-02-28T01:44:34;28.35;;;14.63;;
64188;SDS011;50493;50.970;10.082;2024-02-28T01:47:06;30.20;;;14.82;;
64188;SDS011;50493;50.970;10.082;2024-02-28T01:49:31;26.52;;;13.38;;
64188;SDS011;50493;50.970;10.082;2024-02-28T01:51:57;26.10;;;13.05;;
64188;SDS011;50493;50.970;10.082;2024-02-28T01:54:24;25.60;;;12.65;;
64188;SDS011;50493;50.970;10.082;2024-02-28T01:56:52;27.15;;;13.15;;
64188;SDS011;50493;50.970;10.082;2024-02-28T01:59:17;29.40;;;14.48;;
64188;SDS011;50493;50.970;10.082;2024-02-28T02:01:43;24.35;;;12.10;;
64188;SDS011;50493;50.970;10.082;2024-02-28T02:04:08;25.17;;;12.63;;
64188;SDS011;50493;50.970;10.082;2024-02-28T02:06:34;26.60;;;12.73;;
64188;SDS011;50493;50.970;10.082;2024-02-28T02:09:02;26.50;;;12.55;;
64188;SDS011;50493;50.970;10.082;2024-02-28T02:11:29;25.48;;;13.00;;
64188;SDS011;50493;50.970;10.082;2024-02-28T02:13:54;24.33;;;12.05;;
64188;SDS011;50493;50.970;10.082;2024-02-28T02:16:20;25.80;;;13.05;;
64188;SDS011;50493;50.970;10.082;2024-02-28T02:18:47;23.73;;;12.30;;
64188;SDS011;50493;50.970;10.082;2024-02-28T02:21:13;26.17;;;13.10;;
64188;SDS011;50493;50.970;10.082;2024-02-28T02:23:43;25.33;;;12.52;;
64188;SDS011;50493;50.970;10.082;2024-02-28T02:26:09;25.27;;;12.57;;
64188;SDS011;50493;50.970;10.082;2024-02-28T02:28:34;26.77;;;13.27;;
64188;SDS011;50493;50.970;10.082;2024-02-28T02:31:00;29.58;;;13.63;;
64188;SDS011;50493;50.970;10.082;2024-02-28T02:33:25;25.48;;;12.75;;
64188;SDS011;50493;50.970;10.082;2024-02-28T02:35:51;23.85;;;12.43;;
64188;SDS011;50493;50.970;10.082;2024-02-28T02:38:16;25.55;;;12.63;;
64188;SDS011;50493;50.970;10.082;2024-02-28T02:40:43;26.30;;;13.23;;
64188;SDS011;50493;50.970;10.082;2024-02-28T02:43:08;25.15;;;12.68;;
64188;SDS011;50493;50.970;10.082;2024-02-28T02:45:34;26.58;;;13.35;;
64188;SDS011;50493;50.970;10.082;2024-02-28T02:48:00;27.27;;;13.07;;
64188;SDS011;50493;50.970;10.082;2024-02-28T02:50:25;27.55;;;13.27;;
64188;SDS011;50493;50.970;10.082;2024-02-28T02:52:51;25.90;;;13.35;;
64188;SDS011;50493;50.970;10.082;2024-02-28T02:55:16;25.13;;;12.35;;
64188;SDS011;50493;50.970;10.082;2024-02-28T02:57:43;28.67;;;13.32;;
64188;SDS011;50493;50.970;10.082;2024-02-28T03:00:09;29.50;;;13.70;;
64188;SDS011;50493;50.970;10.082;2024-02-28T03:02:35;27.63;;;13.65;;
64188;SDS011;50493;50.970;10.082;2024-02-28T03:05:03;27.05;;;13.10;;
64188;SDS011;50493;50.970;10.082;2024-02-28T03:07:29;27.33;;;12.70;;
64188;SDS011;50493;50.970;10.082;2024-02-28T03:09:54;29.27;;;14.18;;
64188;SDS011;50493;50.970;10.082;2024-02-28T03:12:19;27.02;;;13.50;;
64188;SDS011;50493;50.970;10.082;2024-02-28T03:14:48;26.00;;;12.88;;
64188;SDS011;50493;50.970;10.082;2024-02-28T03:17:13;27.73;;;13.07;;
64188;SDS011;50493;50.970;10.082;2024-02-28T03:19:40;28.70;;;13.48;;
64188;SDS011;50493;50.970;10.082;2024-02-28T03:22:05;28.35;;;13.02;;
64188;SDS011;50493;50.970;10.082;2024-02-28T03:24:31;28.85;;;14.27;;
64188;SDS011;50493;50.970;10.082;2024-02-28T03:26:56;28.70;;;13.77;;
64188;SDS011;50493;50.970;10.082;2024-02-28T03:29:21;31.10;;;13.82;;
64188;SDS011;50493;50.970;10.082;2024-02-28T03:31:48;28.50;;;13.82;;
64188;SDS011;50493;50.970;10.082;2024-02-28T03:34:13;28.95;;;13.63;;
64188;SDS011;50493;50.970;10.082;2024-02-28T03:36:39;27.88;;;13.32;;
64188;SDS011;50493;50.970;10.082;2024-02-28T03:39:04;30.15;;;13.90;;
64188;SDS011;50493;50.970;10.082;2024-02-28T03:41:31;31.10;;;14.25;;
64188;SDS011;50493;50.970;10.082;2024-02-28T03:43:56;30.60;;;13.52;;
64188;SDS011;50493;50.970;10.082;2024-02-28T03:46:21;29.70;;;14.35;;
64188;SDS011;50493;50.970;10.082;2024-02-28T03:48:48;29.10;;;14.45;;
64188;SDS011;50493;50.970;10.082;2024-02-28T03:51:13;32.25;;;14.98;;
64188;SDS011;50493;50.970;10.082;2024-02-28T03:53:40;31.80;;;14.40;;
64188;SDS011;50493;50.970;10.082;2024-02-28T03:56:05;31.15;;;14.95;;
64188;SDS011;50493;50.970;10.082;2024-02-28T03:58:31;31.88;;;15.13;;
64188;SDS011;50493;50.970;10.082;2024-02-28T04:00:56;31.40;;;14.73;;
64188;SDS011;50493;50.970;10.082;2024-02-28T04:03:21;32.28;;;15.13;;
64188;SDS011;50493;50.970;10.082;2024-02-28T04:05:48;32.72;;;14.57;;
64188;SDS011;50493;50.970;10.082;2024-02-28T04:08:13;28.77;;;14.23;;
64188;SDS011;50493;50.970;10.082;2024-02-28T04:10:39;31.65;;;15.05;;
64188;SDS011;50493;50.970;10.082;2024-02-28T04:13:04;29.65;;;14.10;;
64188;SDS011;50493;50.970;10.082;2024-02-28T04:15:30;33.70;;;15.00;;
64188;SDS011;50493;50.970;10.082;2024-02-28T04:17:55;33.35;;;15.95;;
64188;SDS011;50493;50.970;10.082;2024-02-28T04:20:21;34.15;;;15.77;;
64188;SDS011;50493;50.970;10.082;2024-02-28T04:22:47;31.45;;;15.02;;
64188;SDS011;50493;50.970;10.082;2024-02-28T04:25:12;29.95;;;13.27;;
64188;SDS011;50493;50.970;10.082;2024-02-28T04:27:38;30.27;;;14.07;;
64188;SDS011;50493;50.970;10.082;2024-02-28T04:30:04;32.30;;;14.75;;
64188;SDS011;50493;50.970;10.082;2024-02-28T04:32:30;31.00;;;14.25;;
64188;SDS011;50493;50.970;10.082;2024-02-28T04:34:55;30.73;;;14.30;;
64188;SDS011;50493;50.970;10.082;2024-02-28T04:37:21;32.90;;;14.60;;
64188;SDS011;50493;50.970;10.082;2024-02-28T04:39:48;31.58;;;14.82;;
64188;SDS011;50493;50.970;10.082;2024-02-28T04:42:14;30.92;;;14.43;;
64188;SDS011;50493;50.970;10.082;2024-02-28T04:44:41;33.42;;;14.88;;
64188;SDS011;50493;50.970;10.082;2024-02-28T04:47:06;35.10;;;15.50;;
64188;SDS011;50493;50.970;10.082;2024-02-28T04:49:32;33.25;;;14.73;;
64188;SDS011;50493;50.970;10.082;2024-02-28T04:51:57;33.50;;;14.95;;
64188;SDS011;50493;50.970;10.082;2024-02-28T04:54:23;31.00;;;14.30;;
64188;SDS011;50493;50.970;10.082;2024-02-28T04:56:50;30.40;;;14.73;;
64188;SDS011;50493;50.970;10.082;2024-02-28T04:59:16;32.17;;;15.15;;
64188;SDS011;50493;50.970;10.082;2024-02-28T05:01:41;33.70;;;15.10;;
64188;SDS011;50493;50.970;10.082;2024-02-28T05:04:08;33.60;;;15.18;;
64188;SDS011;50493;50.970;10.082;2024-02-28T05:06:35;32.70;;;14.45;;
64188;SDS011;50493;50.970;10.082;2024-02-28T05:09:00;33.67;;;14.88;;
64188;SDS011;50493;50.970;10.082;2024-02-28T05:11:26;33.63;;;14.57;;
64188;SDS011;50493;50.970;10.082;2024-02-28T05:13:53;33.45;;;14.55;;
64188;SDS011;50493;50.970;10.082;2024-02-28T05:16:18;31.70;;;14.80;;
64188;SDS011;50493;50.970;10.082;2024-02-28T05:18:44;32.78;;;14.50;;
64188;SDS011;50493;50.970;10.082;2024-02-28T05:21:10;36.08;;;15.38;;
64188;SDS011;50493;50.970;10.082;2024-02-28T05:23:35;30.73;;;14.38;;
64188;SDS011;50493;50.970;10.082;2024-02-28T05:26:01;30.80;;;13.63;;
64188;SDS011;50493;50.970;10.082;2024-02-28T05:28:28;31.83;;;14.57;;
64188;SDS011;50493;50.970;10.082;2024-02-28T05:30:55;31.35;;;14.00;;
64188;SDS011;50493;50.970;10.082;2024-02-28T05:33:20;31.83;;;14.57;;
64188;SDS011;50493;50.970;10.082;2024-02-28T05:35:46;33.53;;;14.70;;
64188;SDS011;50493;50.970;10.082;2024-02-28T05:38:11;33.47;;;14.60;;
64188;SDS011;50493;50.970;10.082;2024-02-28T05:40:36;31.50;;;13.82;;
64188;SDS011;50493;50.970;10.082;2024-02-28T05:43:02;29.85;;;13.63;;
64188;SDS011;50493;50.970;10.082;2024-02-28T05:45:29;32.83;;;13.52;;
64188;SDS011;50493;50.970;10.082;2024-02-28T05:47:56;29.70;;;14.05;;
64188;SDS011;50493;50.970;10.082;2024-02-28T05:50:21;29.70;;;13.45;;
64188;SDS011;50493;50.970;10.082;2024-02-28T05:52:46;30.50;;;15.00;;
64188;SDS011;50493;50.970;10.082;2024-02-28T05:55:12;31.55;;;14.07;;
64188;SDS011;50493;50.970;10.082;2024-02-28T05:57:37;30.55;;;14.23;;
64188;SDS011;50493;50.970;10.082;2024-02-28T06:00:03;33.47;;;14.75;;
64188;SDS011;50493;50.970;10.082;2024-02-28T06:02:34;31.63;;;13.90;;
64188;SDS011;50493;50.970;10.082;2024-02-28T06:05:01;37.85;;;16.33;;
64188;SDS011;50493;50.970;10.082;2024-02-28T06:07:26;37.97;;;16.30;;
64188;SDS011;50493;50.970;10.082;2024-02-28T06:09:52;40.53;;;16.52;;
64188;SDS011;50493;50.970;10.082;2024-02-28T06:12:17;39.37;;;16.80;;
64188;SDS011;50493;50.970;10.082;2024-02-28T06:14:42;36.40;;;17.05;;
64188;SDS011;50493;50.970;10.082;2024-02-28T06:17:08;42.20;;;17.73;;
64188;SDS011;50493;50.970;10.082;2024-02-28T06:19:33;37.33;;;16.73;;
64188;SDS011;50493;50.970;10.082;2024-02-28T06:22:00;41.33;;;16.52;;
64188;SDS011;50493;50.970;10.082;2024-02-28T06:24:25;39.00;;;16.20;;
64188;SDS011;50493;50.970;10.082;2024-02-28T06:26:51;38.92;;;16.23;;
64188;SDS011;50493;50.970;10.082;2024-02-28T06:29:16;37.40;;;16.20;;
64188;SDS011;50493;50.970;10.082;2024-02-28T06:31:42;38.85;;;17.20;;
64188;SDS011;50493;50.970;10.082;2024-02-28T06:34:07;36.47;;;16.40;;
64188;SDS011;50493;50.970;10.082;2024-02-28T06:36:32;40.08;;;16.42;;
64188;SDS011;50493;50.970;10.082;2024-02-28T06:38:59;41.25;;;15.82;;
64188;SDS011;50493;50.970;10.082;2024-02-28T06:41:24;39.20;;;16.98;;
64188;SDS011;50493;50.970;10.082;2024-02-28T06:43:50;40.47;;;16.63;;
64188;SDS011;50493;50.970;10.082;2024-02-28T06:46:15;36.22;;;15.95;;
64188;SDS011;50493;50.970;10.082;2024-02-28T06:48:40;39.42;;;15.98;;
64188;SDS011;50493;50.970;10.082;2024-02-28T06:51:06;37.10;;;16.00;;
64188;SDS011;50493;50.970;10.082;2024-02-28T06:53:31;37.10;;;16.13;;
64188;SDS011;50493;50.970;10.082;2024-02-28T06:55:58;34.88;;;15.18;;
64188;SDS011;50493;50.970;10.082;2024-02-28T06:58:23;37.45;;;15.90;;
64188;SDS011;50493;50.970;10.082;2024-02-28T07:00:50;33.35;;;15.18;;
64188;SDS011;50493;50.970;10.082;2024-02-28T07:03:16;37.80;;;15.88;;
64188;SDS011;50493;50.970;10.082;2024-02-28T07:05:41;35.10;;;15.57;;
64188;SDS011;50493;50.970;10.082;2024-02-28T07:08:07;37.13;;;15.15;;
64188;SDS011;50493;50.970;10.082;2024-02-28T07:10:32;34.58;;;15.05;;
64188;SDS011;50493;50.970;10.082;2024-02-28T07:12:59;34.25;;;14.63;;
64188;SDS011;50493;50.970;10.082;2024-02-28T07:15:24;36.58;;;15.63;;
64188;SDS011;50493;50.970;10.082;2024-02-28T07:17:50;36.20;;;14.68;;
64188;SDS011;50493;50.970;10.082;2024-02-28T07:20:15;34.15;;;15.30;;
64188;SDS011;50493;50.970;10.082;2024-02-28T07:22:42;34.13;;;14.63;;
64188;SDS011;50493;50.970;10.082;2024-02-28T07:25:07;36.55;;;14.45;;
64188;SDS011;50493;50.970;10.082;2024-02-28T07:27:33;35.35;;;15.02;;
64188;SDS011;50493;50.970;10.082;2024-02-28T07:30:00;32.08;;;14.65;;
64188;SDS011;50493;50.970;10.082;2024-02-28T07:32:26;33.42;;;15.18;;
64188;SDS011;50493;50.970;10.082;2024-02-28T07:34:51;33.25;;;14.65;;
64188;SDS011;50493;50.970;10.082;2024-02-28T07:37:17;32.10;;;14.13;;
64188;SDS011;50493;50.970;10.082;2024-02-28T07:39:43;34.70;;;14.32;;
64188;SDS011;50493;50.970;10.082;2024-02-28T07:42:08;33.55;;;14.98;;
64188;SDS011;50493;50.970;10.082;2024-02-28T07:44:33;33.25;;;15.45;;
64188;SDS011;50493;50.970;10.082;2024-02-28T07:47:00;34.63;;;15.10;;
64188;SDS011;50493;50.970;10.082;2024-02-28T07:49:25;34.15;;;14.18;;
64188;SDS011;50493;50.970;10.082;2024-02-28T07:51:51;31.10;;;14.27;;
64188;SDS011;50493;50.970;10.082;2024-02-28T07:54:16;31.33;;;14.30;;
64188;SDS011;50493;50.970;10.082;2024-02-28T07:56:43;32.88;;;14.15;;
64188;SDS011;50493;50.970;10.082;2024-02-28T07:59:08;33.60;;;14.75;;
64188;SDS011;50493;50.970;10.082;2024-02-28T08:01:34;32.78;;;14.00;;
64188;SDS011;50493;50.970;10.082;2024-02-28T08:04:00;34.42;;;14.43;;
64188;SDS011;50493;50.970;10.082;2024-02-28T08:06:26;33.53;;;14.27;;
64188;SDS011;50493;50.970;10.082;2024-02-28T08:08:52;35.92;;;14.98;;
64188;SDS011;50493;50.970;10.082;2024-02-28T08:11:18;34.42;;;14.25;;
64188;SDS011;50493;50.970;10.082;2024-02-28T08:13:44;35.15;;;15.43;;
64188;SDS011;50493;50.970;10.082;2024-02-28T08:16:09;37.28;;;15.38;;
64188;SDS011;50493;50.970;10.082;2024-02-28T08:18:34;30.00;;;13.45;;
64188;SDS011;50493;50.970;10.082;2024-02-28T08:21:01;30.92;;;13.30;;
64188;SDS011;50493;50.970;10.082;2024-02-28T08:23:28;34.33;;;14.13;;
64188;SDS011;50493;50.970;10.082;2024-02-28T08:25:53;32.22;;;14.43;;
64188;SDS011;50493;50.970;10.082;2024-02-28T08:28:19;32.17;;;14.45;;
64188;SDS011;50493;50.970;10.082;2024-02-28T08:30:44;32.90;;;14.10;;
64188;SDS011;50493;50.970;10.082;2024-02-28T08:33:10;32.33;;;14.38;;
64188;SDS011;50493;50.970;10.082;2024-02-28T08:35:35;32.85;;;14.30;;
64188;SDS011;50493;50.970;10.082;2024-02-28T08:38:02;33.42;;;13.32;;
64188;SDS011;50493;50.970;10.082;2024-02-28T08:40:28;31.27;;;12.98;;
64188;SDS011;50493;50.970;10.082;2024-02-28T08:42:53;32.22;;;13.55;;
64188;SDS011;50493;50.970;10.082;2024-02-28T08:45:19;31.98;;;13.23;;
64188;SDS011;50493;50.970;10.082;2024-02-28T08:47:44;34.08;;;14.40;;
64188;SDS011;50493;50.970;10.082;2024-02-28T08:50:10;33.42;;;14.50;;
64188;SDS011;50493;50.970;10.082;2024-02-28T08:52:35;32.72;;;13.77;;
64188;SDS011;50493;50.970;10.082;2024-02-28T08:55:02;34.85;;;14.10;;
64188;SDS011;50493;50.970;10.082;2024-02-28T08:57:28;33.50;;;13.65;;
64188;SDS011;50493;50.970;10.082;2024-02-28T08:59:55;32.55;;;13.65;;
64188;SDS011;50493;50.970;10.082;2024-02-28T09:02:20;29.48;;;13.02;;
64188;SDS011;50493;50.970;10.082;2024-02-28T09:04:45;30.80;;;13.68;;
64188;SDS011;50493;50.970;10.082;2024-02-28T09:07:11;33.90;;;13.32;;
64188;SDS011;50493;50.970;10.082;2024-02-28T09:09:40;31.20;;;13.63;;
64188;SDS011;50493;50.970;10.082;2024-02-28T09:12:08;32.35;;;13.38;;
64188;SDS011;50493;50.970;10.082;2024-02-28T09:14:33;30.20;;;13.32;;
64188;SDS011;50493;50.970;10.082;2024-02-28T09:16:58;40.10;;;16.77;;
64188;SDS011;50493;50.970;10.082;2024-02-28T09:19:28;31.92;;;13.63;;
64188;SDS011;50493;50.970;10.082;2024-02-28T09:21:53;33.05;;;13.77;;
64188;SDS011;50493;50.970;10.082;2024-02-28T09:24:18;31.27;;;13.75;;
64188;SDS011;50493;50.970;10.082;2024-02-28T09:26:44;29.90;;;13.25;;
64188;SDS011;50493;50.970;10.082;2024-02-28T09:29:10;33.50;;;14.48;;
64188;SDS011;50493;50.970;10.082;2024-02-28T09:31:36;32.05;;;13.38;;
64188;SDS011;50493;50.970;10.082;2024-02-28T09:34:01;31.42;;;13.45;;
64188;SDS011;50493;50.970;10.082;2024-02-28T09:36:32;30.33;;;13.30;;
64188;SDS011;50493;50.970;10.082;2024-02-28T09:38:57;33.10;;;14.88;;
64188;SDS011;50493;50.970;10.082;2024-02-28T09:41:23;29.52;;;12.63;;
64188;SDS011;50493;50.970;10.082;2024-02-28T09:43:51;31.13;;;13.95;;
64188;SDS011;50493;50.970;10.082;2024-02-28T09:46:18;31.70;;;13.80;;
64188;SDS011;50493;50.970;10.082;2024-02-28T09:48:44;32.78;;;13.95;;
64188;SDS011;50493;50.970;10.082;2024-02-28T09:51:14;30.42;;;13.90;;
64188;SDS011;50493;50.970;10.082;2024-02-28T09:53:41;29.50;;;13.15;;
64188;SDS011;50493;50.970;10.082;2024-02-28T09:56:07;29.95;;;13.25;;
64188;SDS011;50493;50.970;10.082;2024-02-28T09:58:32;31.88;;;13.27;;
64188;SDS011;50493;50.970;10.082;2024-02-28T10:01:00;30.50;;;13.10;;
64188;SDS011;50493;50.970;10.082;2024-02-28T10:03:31;31.75;;;13.85;;
64188;SDS011;50493;50.970;10.082;2024-02-28T10:05:57;33.90;;;13.65;;
64188;SDS011;50493;50.970;10.082;2024-02-28T10:08:22;30.48;;;13.30;;
64188;SDS011;50493;50.970;10.082;2024-02-28T10:10:48;30.42;;;13.25;;
64188;SDS011;50493;50.970;10.082;2024-02-28T10:13:15;28.58;;;12.77;;
64188;SDS011;50493;50.970;10.082;2024-02-28T10:15:41;28.98;;;13.00;;
64188;SDS011;50493;50.970;10.082;2024-02-28T10:18:06;27.95;;;13.48;;
64188;SDS011;50493;50.970;10.082;2024-02-28T10:20:33;28.02;;;12.50;;
64188;SDS011;50493;50.970;10.082;2024-02-28T10:22:59;26.73;;;12.45;;
64188;SDS011;50493;50.970;10.082;2024-02-28T10:25:24;28.52;;;13.20;;
64188;SDS011;50493;50.970;10.082;2024-02-28T10:27:51;28.83;;;13.27;;
64188;SDS011;50493;50.970;10.082;2024-02-28T10:30:16;31.25;;;13.40;;
64188;SDS011;50493;50.970;10.082;2024-02-28T10:32:48;29.77;;;13.27;;
64188;SDS011;50493;50.970;10.082;2024-02-28T10:35:13;29.15;;;13.13;;
64188;SDS011;50493;50.970;10.082;2024-02-28T10:37:43;30.50;;;13.75;;
64188;SDS011;50493;50.970;10.082;2024-02-28T10:40:10;26.08;;;11.98;;
64188;SDS011;50493;50.970;10.082;2024-02-28T10:42:37;29.05;;;13.38;;
64188;SDS011;50493;50.970;10.082;2024-02-28T10:45:07;29.70;;;12.80;;
64188;SDS011;50493;50.970;10.082;2024-02-28T10:47:35;28.00;;;12.88;;
64188;SDS011;50493;50.970;10.082;2024-02-28T10:50:03;26.55;;;13.10;;
64188;SDS011;50493;50.970;10.082;2024-02-28T10:52:29;28.60;;;12.98;;
64188;SDS011;50493;50.970;10.082;2024-02-28T10:54:59;24.17;;;12.05;;
64188;SDS011;50493;50.970;10.082;2024-02-28T10:57:27;25.80;;;12.07;;
64188;SDS011;50493;50.970;10.082;2024-02-28T10:59:55;26.58;;;12.48;;
64188;SDS011;50493;50.970;10.082;2024-02-28T11:02:22;25.38;;;12.25;;
64188;SDS011;50493;50.970;10.082;2024-02-28T11:04:50;25.98;;;12.27;;
64188;SDS011;50493;50.970;10.082;2024-02-28T11:07:19;23.88;;;10.95;;
64188;SDS011;50493;50.970;10.082;2024-02-28T11:09:44;26.42;;;11.82;;
64188;SDS011;50493;50.970;10.082;2024-02-28T11:12:24;41.13;;;17.63;;
64188;SDS011;50493;50.970;10.082;2024-02-28T11:14:55;26.67;;;13.15;;
64188;SDS011;50493;50.970;10.082;2024-02-28T11:17:25;32.75;;;14.45;;
64188;SDS011;50493;50.970;10.082;2024-02-28T11:19:51;40.13;;;19.98;;
64188;SDS011;50493;50.970;10.082;2024-02-28T11:22:18;29.25;;;14.02;;
64188;SDS011;50493;50.970;10.082;2024-02-28T11:24:44;38.72;;;20.05;;
64188;SDS011;50493;50.970;10.082;2024-02-28T11:27:11;29.35;;;14.38;;
64188;SDS011;50493;50.970;10.082;2024-02-28T11:29:40;45.22;;;21.27;;
64188;SDS011;50493;50.970;10.082;2024-02-28T11:32:05;31.67;;;15.05;;
64188;SDS011;50493;50.970;10.082;2024-02-28T11:34:31;25.20;;;12.70;;
64188;SDS011;50493;50.970;10.082;2024-02-28T11:36:58;24.83;;;12.48;;
64188;SDS011;50493;50.970;10.082;2024-02-28T11:39:24;27.50;;;13.27;;
64188;SDS011;50493;50.970;10.082;2024-02-28T11:41:52;26.90;;;13.57;;
64188;SDS011;50493;50.970;10.082;2024-02-28T11:44:18;25.38;;;12.63;;
64188;SDS011;50493;50.970;10.082;2024-02-28T11:46:45;23.50;;;11.75;;
64188;SDS011;50493;50.970;10.082;2024-02-28T11:49:11;25.88;;;12.57;;
64188;SDS011;50493;50.970;10.082;2024-02-28T11:51:36;26.52;;;12.05;;
64188;SDS011;50493;50.970;10.082;2024-02-28T11:54:02;24.45;;;11.48;;
64188;SDS011;50493;50.970;10.082;2024-02-28T11:56:27;25.20;;;12.88;;
64188;SDS011;50493;50.970;10.082;2024-02-28T11:58:53;25.15;;;11.50;;
64188;SDS011;50493;50.970;10.082;2024-02-28T12:01:18;25.05;;;12.30;;
64188;SDS011;50493;50.970;10.082;2024-02-28T12:03:45;23.50;;;11.75;;
64188;SDS011;50493;50.970;10.082;2024-02-28T12:06:11;24.42;;;11.10;;
64188;SDS011;50493;50.970;10.082;2024-02-28T12:08:36;25.10;;;12.50;;
64188;SDS011;50493;50.970;10.082;2024-02-28T12:11:05;23.92;;;10.35;;
64188;SDS011;50493;50.970;10.082;2024-02-28T12:13:32;23.17;;;11.63;;
64188;SDS011;50493;50.970;10.082;2024-02-28T12:15:57;21.40;;;10.75;;
64188;SDS011;50493;50.970;10.082;2024-02-28T12:18:22;22.05;;;11.38;;
64188;SDS011;50493;50.970;10.082;2024-02-28T12:20:53;21.52;;;10.35;;
64188;SDS011;50493;50.970;10.082;2024-02-28T12:23:19;23.15;;;10.52;;
64188;SDS011;50493;50.970;10.082;2024-02-28T12:25:44;19.13;;;9.68;;
64188;SDS011;50493;50.970;10.082;2024-02-28T12:28:10;21.90;;;10.35;;
64188;SDS011;50493;50.970;10.082;2024-02-28T12:30:39;19.85;;;9.70;;
64188;SDS011;50493;50.970;10.082;2024-02-28T12:33:05;23.13;;;10.38;;
64188;SDS011;50493;50.970;10.082;2024-02-28T12:35:30;20.88;;;10.75;;
64188;SDS011;50493;50.970;10.082;2024-02-28T12:37:57;19.17;;;9.52;;
64188;SDS011;50493;50.970;10.082;2024-02-28T12:40:22;20.83;;;10.05;;
64188;SDS011;50493;50.970;10.082;2024-02-28T12:42:48;15.73;;;7.95;;
64188;SDS011;50493;50.970;10.082;2024-02-28T12:45:13;17.42;;;8.70;;
64188;SDS011;50493;50.970;10.082;2024-02-28T12:47:39;17.27;;;8.82;;
64188;SDS011;50493;50.970;10.082;2024-02-28T12:50:04;17.15;;;9.00;;
64188;SDS011;50493;50.970;10.082;2024-02-28T12:52:32;17.35;;;8.85;;
64188;SDS011;50493;50.970;10.082;2024-02-28T12:54:58;17.85;;;8.43;;
64188;SDS011;50493;50.970;10.082;2024-02-28T12:57:24;19.25;;;9.50;;
64188;SDS011;50493;50.970;10.082;2024-02-28T12:59:49;19.15;;;9.80;;
64188;SDS011;50493;50.970;10.082;2024-02-28T13:02:14;16.77;;;8.18;;
64188;SDS011;50493;50.970;10.082;2024-02-28T13:04:40;16.02;;;8.40;;
64188;SDS011;50493;50.970;10.082;2024-02-28T13:07:06;18.20;;;8.77;;
64188;SDS011;50493;50.970;10.082;2024-02-28T13:09:31;16.08;;;9.35;;
64188;SDS011;50493;50.970;10.082;2024-02-28T13:11:58;21.85;;;10.73;;
64188;SDS011;50493;50.970;10.082;2024-02-28T13:14:23;15.13;;;8.25;;
64188;SDS011;50493;50.970;10.082;2024-02-28T13:16:48;18.80;;;9.75;;
64188;SDS011;50493;50.970;10.082;2024-02-28T13:19:15;13.98;;;7.70;;
64188;SDS011;50493;50.970;10.082;2024-02-28T13:21:40;14.13;;;7.93;;
64188;SDS011;50493;50.970;10.082;2024-02-28T13:24:06;13.40;;;7.00;;
64188;SDS011;50493;50.970;10.082;2024-02-28T13:26:31;19.33;;;9.88;;
64188;SDS011;50493;50.970;10.082;2024-02-28T13:28:58;22.02;;;11.77;;
64188;SDS011;50493;50.970;10.082;2024-02-28T13:31:23;22.92;;;11.25;;
64188;SDS011;50493;50.970;10.082;2024-02-28T13:33:48;21.10;;;10.68;;
64188;SDS011;50493;50.970;10.082;2024-02-28T13:36:14;11.18;;;6.22;;
64188;SDS011;50493;50.970;10.082;2024-02-28T13:38:40;10.18;;;5.40;;
64188;SDS011;50493;50.970;10.082;2024-02-28T13:41:05;11.27;;;5.57;;
64188;SDS011;50493;50.970;10.082;2024-02-28T13:43:31;17.48;;;9.07;;
64188;SDS011;50493;50.970;10.082;2024-02-28T13:45:57;17.92;;;9.13;;
64188;SDS011;50493;50.970;10.082;2024-02-28T13:48:25;14.02;;;6.72;;
64188;SDS011;50493;50.970;10.082;2024-02-28T13:50:53;14.95;;;8.23;;
64188;SDS011;50493;50.970;10.082;2024-02-28T13:53:20;16.50;;;8.85;;
64188;SDS011;50493;50.970;10.082;2024-02-28T13:55:45;20.52;;;10.07;;
64188;SDS011;50493;50.970;10.082;2024-02-28T13:58:10;18.58;;;9.65;;
64188;SDS011;50493;50.970;10.082;2024-02-28T14:00:36;9.40;;;4.90;;
64188;SDS011;50493;50.970;10.082;2024-02-28T14:03:03;16.38;;;8.77;;